AEE2AD EHAM-LGAV
Flight info
| Callsign | AEE2AD |
|---|---|
| Flight time | N/A |
| Altitude | 37000 |
| Route | EDUPO Z739 MISGO DCT DOJOH DCT DODEN DCT NEGIX DCT DINKU M867 XERUM DCT BAVAX DCT RADIZ DCT LUMUS DCT GORPA DCT ELTIB DCT PINDO DCT PIKOS UL607 XORKI |
| Aircraft | A320/M-SDE3FGHIRWY/LB1 |
Departure
| Time | 2026-05-04 10:11 |
|---|---|
| Airport | Amsterdam Airport Schiphol (EHAM) |
Arrival
| Time | N/A |
|---|---|
| Airport | Athens Eleftherios Venizelos International Airport (LGAV) |
| Time | Latitude | Longitude | Altitude | Speed | Heading |
|---|---|---|---|---|---|
| 2026-05-04 09:46 | 52.30477 | 4.76294 | -1 ft | 0 kts | 238° |
| 2026-05-04 10:00 | 52.30525 | 4.76418 | -1 ft | 0 kts | 238° |
| 2026-05-04 10:02 | 52.30514 | 4.76395 | -1 ft | 4 kts | 229° |
| 2026-05-04 10:04 | 52.30384 | 4.77004 | -1 ft | 15 kts | 60° |
| 2026-05-04 10:04 | 52.30440 | 4.77155 | -1 ft | 16 kts | 58° |
| 2026-05-04 10:04 | 52.30502 | 4.77318 | -1 ft | 17 kts | 57° |
| 2026-05-04 10:04 | 52.30561 | 4.77468 | -1 ft | 16 kts | 57° |
| 2026-05-04 10:05 | 52.30649 | 4.77584 | -1 ft | 18 kts | 13° |
| 2026-05-04 10:05 | 52.30778 | 4.77598 | -1 ft | 19 kts | 2° |
| 2026-05-04 10:05 | 52.30917 | 4.77609 | -1 ft | 21 kts | 3° |
| 2026-05-04 10:05 | 52.31062 | 4.77623 | -1 ft | 21 kts | 4° |
| 2026-05-04 10:06 | 52.31191 | 4.77634 | -1 ft | 16 kts | 7° |
| 2026-05-04 10:06 | 52.31310 | 4.77646 | -1 ft | 17 kts | 3° |
| 2026-05-04 10:06 | 52.31421 | 4.77649 | -1 ft | 15 kts | 353° |
| 2026-05-04 10:08 | 52.31881 | 4.77699 | -2 ft | 10 kts | 3° |
| 2026-05-04 10:08 | 52.31952 | 4.77706 | -1 ft | 11 kts | 5° |
| 2026-05-04 10:08 | 52.32026 | 4.77753 | -1 ft | 12 kts | 37° |
| 2026-05-04 10:08 | 52.32091 | 4.77846 | -1 ft | 12 kts | 43° |
| 2026-05-04 10:09 | 52.32123 | 4.77966 | -1 ft | 11 kts | 99° |
| 2026-05-04 10:09 | 52.32069 | 4.78013 | -1 ft | 9 kts | 180° |
| 2026-05-04 10:09 | 52.32047 | 4.78012 | -1 ft | 0 kts | 182° |
| 2026-05-04 10:09 | 52.32046 | 4.78012 | -1 ft | 3 kts | 182° |
| 2026-05-04 10:10 | 52.31843 | 4.77993 | -2 ft | 63 kts | 183° |
| 2026-05-04 10:10 | 52.31203 | 4.77932 | -2 ft | 119 kts | 183° |
| 2026-05-04 10:10 | 52.30224 | 4.77836 | 3 ft | 161 kts | 183° |
| 2026-05-04 10:10 | 52.29101 | 4.77733 | 573 ft | 157 kts | 182° |
| 2026-05-04 10:11 | 52.27983 | 4.77659 | 1104 ft | 164 kts | 182° |
| 2026-05-04 10:11 | 52.26861 | 4.77584 | 1714 ft | 165 kts | 178° |
| 2026-05-04 10:11 | 52.25775 | 4.78288 | 2020 ft | 182 kts | 135° |
| 2026-05-04 10:11 | 52.25106 | 4.80161 | 2251 ft | 204 kts | 112° |
| 2026-05-04 10:12 | 52.24539 | 4.82440 | 2512 ft | 229 kts | 112° |
| 2026-05-04 10:12 | 52.23898 | 4.84963 | 2890 ft | 252 kts | 113° |
| 2026-05-04 10:12 | 52.23205 | 4.87653 | 3585 ft | 261 kts | 113° |
| 2026-05-04 10:12 | 52.22493 | 4.90397 | 4416 ft | 265 kts | 113° |
| 2026-05-04 10:13 | 52.21765 | 4.93187 | 5258 ft | 269 kts | 113° |
| 2026-05-04 10:13 | 52.21022 | 4.96020 | 6061 ft | 274 kts | 114° |
| 2026-05-04 10:13 | 52.20265 | 4.98901 | 6833 ft | 279 kts | 114° |
| 2026-05-04 10:13 | 52.19494 | 5.01824 | 7581 ft | 283 kts | 114° |
| 2026-05-04 10:14 | 52.18709 | 5.04791 | 8361 ft | 287 kts | 114° |
| 2026-05-04 10:14 | 52.17912 | 5.07801 | 9106 ft | 292 kts | 114° |
| 2026-05-04 10:16 | 52.11486 | 5.32027 | 12567 ft | 363 kts | 115° |
| 2026-05-04 10:16 | 52.10475 | 5.35817 | 13187 ft | 367 kts | 115° |
| 2026-05-04 10:16 | 52.09451 | 5.39642 | 13815 ft | 371 kts | 115° |
| 2026-05-04 10:16 | 52.08414 | 5.43500 | 14349 ft | 374 kts | 116° |
| 2026-05-04 10:17 | 52.07367 | 5.47394 | 14884 ft | 378 kts | 116° |
| 2026-05-04 10:17 | 52.06310 | 5.51319 | 15421 ft | 381 kts | 116° |
| 2026-05-04 10:19 | 51.98643 | 5.79563 | 19101 ft | 402 kts | 116° |
| 2026-05-04 10:19 | 51.97342 | 5.83578 | 19562 ft | 402 kts | 126° |
| 2026-05-04 10:19 | 51.95653 | 5.87182 | 20043 ft | 402 kts | 134° |
| 2026-05-04 10:19 | 51.93810 | 5.90608 | 20499 ft | 404 kts | 135° |
| 2026-05-04 10:20 | 51.91948 | 5.94063 | 20961 ft | 407 kts | 135° |
| 2026-05-04 10:20 | 51.90080 | 5.97524 | 21418 ft | 409 kts | 135° |
| 2026-05-04 10:20 | 51.88844 | 5.99814 | 21700 ft | 411 kts | 136° |
| 2026-05-04 10:20 | 51.86964 | 6.03297 | 22208 ft | 411 kts | 136° |
| 2026-05-04 10:21 | 51.85085 | 6.06788 | 22689 ft | 412 kts | 136° |
| 2026-05-04 10:21 | 51.83196 | 6.10288 | 23143 ft | 414 kts | 136° |
| 2026-05-04 10:21 | 51.81294 | 6.13794 | 23572 ft | 416 kts | 137° |
| 2026-05-04 10:21 | 51.79376 | 6.17308 | 23941 ft | 418 kts | 137° |
| 2026-05-04 10:22 | 51.75507 | 6.24365 | 24635 ft | 422 kts | 137° |
| 2026-05-04 10:22 | 51.73556 | 6.27925 | 24968 ft | 425 kts | 137° |
| 2026-05-04 10:22 | 51.71592 | 6.31509 | 25280 ft | 427 kts | 137° |
| 2026-05-04 10:23 | 51.69621 | 6.35099 | 25617 ft | 429 kts | 137° |
| 2026-05-04 10:23 | 51.67637 | 6.38701 | 25940 ft | 431 kts | 137° |